< < Back
Terminal Aerodrome Forecast


Current Version              Previous Versions:   1  2  3  4  5  6  7  8  9  

Terminal Aerodrome Forecast

084
FTUS42 KILM 271146 CCC
TAFILM
TAF COR
KILM 271146Z 2712/2812 07004KT P6SM SCT015 BKN070
      TEMPO 2712/2714 SCT006 BKN015
     FM271400 09005KT P6SM VCSH BKN020 BKN070
     FM271600 14008KT P6SM SCT025 SCT070
     FM280100 VRB02KT P6SM SCT050 BKN200=

Latest METAR

625
SAUS70 KWBC 272200 RRP
MTRILM
METAR KILM 272153Z AUTO 15008KT 10SM CLR 28/20 A3001 RMK AO2 SLP162
T02830200 PWINO


USA.gov is the U.S. government's official web portal to all federal, state and local government web resources and services.